sensor_id;sensor_type;location;lat;lon;timestamp;pressure;altitude;pressure_sealevel;temperature;humidity
63306;BME280;50735;52.060;1.248;2023-04-26T00:01:36;101757.03;;;5.02;45.67
63306;BME280;50735;52.060;1.248;2023-04-26T00:04:08;101755.20;;;5.40;45.76
63306;BME280;50735;52.060;1.248;2023-04-26T00:06:40;101757.30;;;5.18;45.91
63306;BME280;50735;52.060;1.248;2023-04-26T00:09:11;101759.14;;;5.37;45.80
63306;BME280;50735;52.060;1.248;2023-04-26T00:11:43;101758.42;;;4.94;45.84
63306;BME280;50735;52.060;1.248;2023-04-26T00:14:15;101758.55;;;5.10;45.83
63306;BME280;50735;52.060;1.248;2023-04-26T00:16:47;101759.27;;;4.88;45.79
63306;BME280;50735;52.060;1.248;2023-04-26T00:19:19;101756.95;;;5.23;45.85
63306;BME280;50735;52.060;1.248;2023-04-26T00:21:51;101756.89;;;4.78;45.96
63306;BME280;50735;52.060;1.248;2023-04-26T00:24:22;101755.69;;;5.12;45.65
63306;BME280;50735;52.060;1.248;2023-04-26T00:26:55;101756.20;;;4.86;46.03
63306;BME280;50735;52.060;1.248;2023-04-26T00:29:27;101754.70;;;4.80;45.99
63306;BME280;50735;52.060;1.248;2023-04-26T00:31:58;101759.14;;;4.74;46.45
63306;BME280;50735;52.060;1.248;2023-04-26T00:34:31;101758.82;;;4.90;46.38
63306;BME280;50735;52.060;1.248;2023-04-26T00:37:04;101758.46;;;4.67;46.37
63306;BME280;50735;52.060;1.248;2023-04-26T00:39:36;101759.56;;;4.45;46.37
63306;BME280;50735;52.060;1.248;2023-04-26T00:42:08;101755.83;;;4.60;46.47
63306;BME280;50735;52.060;1.248;2023-04-26T00:44:41;101751.45;;;4.79;46.53
63306;BME280;50735;52.060;1.248;2023-04-26T00:47:13;101746.20;;;4.74;46.50
63306;BME280;50735;52.060;1.248;2023-04-26T00:49:45;101745.67;;;4.70;46.49
63306;BME280;50735;52.060;1.248;2023-04-26T00:52:17;101745.07;;;4.69;46.60
63306;BME280;50735;52.060;1.248;2023-04-26T00:54:49;101741.87;;;4.68;46.63
63306;BME280;50735;52.060;1.248;2023-04-26T00:57:22;101740.63;;;4.66;46.60
63306;BME280;50735;52.060;1.248;2023-04-26T00:59:54;101731.29;;;4.61;47.19
63306;BME280;50735;52.060;1.248;2023-04-26T01:02:26;101728.52;;;4.54;46.97
63306;BME280;50735;52.060;1.248;2023-04-26T01:04:58;101728.86;;;4.28;47.35
63306;BME280;50735;52.060;1.248;2023-04-26T01:07:30;101723.21;;;4.25;46.96
63306;BME280;50735;52.060;1.248;2023-04-26T01:10:02;101720.01;;;4.63;47.41
63306;BME280;50735;52.060;1.248;2023-04-26T01:12:34;101721.64;;;4.40;46.94
63306;BME280;50735;52.060;1.248;2023-04-26T01:12:37;101722.17;;;4.00;46.93
63306;BME280;50735;52.060;1.248;2023-04-26T01:15:10;101718.64;;;4.16;46.93
63306;BME280;50735;52.060;1.248;2023-04-26T01:17:45;101715.32;;;4.13;47.21
63306;BME280;50735;52.060;1.248;2023-04-26T01:20:17;101713.55;;;4.50;47.05
63306;BME280;50735;52.060;1.248;2023-04-26T01:22:49;101711.71;;;4.29;47.04
63306;BME280;50735;52.060;1.248;2023-04-26T01:25:21;101712.32;;;4.26;47.03
63306;BME280;50735;52.060;1.248;2023-04-26T01:27:53;101712.19;;;4.26;47.03
63306;BME280;50735;52.060;1.248;2023-04-26T01:30:25;101710.77;;;4.22;47.06
63306;BME280;50735;52.060;1.248;2023-04-26T01:32:57;101707.35;;;4.36;46.91
63306;BME280;50735;52.060;1.248;2023-04-26T01:35:28;101708.20;;;4.17;47.17
63306;BME280;50735;52.060;1.248;2023-04-26T01:38:00;101707.43;;;4.34;47.19
63306;BME280;50735;52.060;1.248;2023-04-26T01:40:33;101704.43;;;4.10;47.11
63306;BME280;50735;52.060;1.248;2023-04-26T01:43:04;101703.81;;;4.23;46.88
63306;BME280;50735;52.060;1.248;2023-04-26T01:45:36;101702.53;;;4.21;46.99
63306;BME280;50735;52.060;1.248;2023-04-26T01:48:08;101704.85;;;4.23;47.14
63306;BME280;50735;52.060;1.248;2023-04-26T01:50:40;101708.01;;;4.41;47.21
63306;BME280;50735;52.060;1.248;2023-04-26T01:53:12;101708.37;;;4.00;47.04
63306;BME280;50735;52.060;1.248;2023-04-26T01:55:44;101706.66;;;3.93;47.21
63306;BME280;50735;52.060;1.248;2023-04-26T01:58:16;101702.65;;;3.92;47.23
63306;BME280;50735;52.060;1.248;2023-04-26T02:00:48;101698.35;;;3.90;47.14
63306;BME280;50735;52.060;1.248;2023-04-26T02:03:20;101695.88;;;3.91;47.13
63306;BME280;50735;52.060;1.248;2023-04-26T02:05:52;101695.75;;;4.09;47.16
63306;BME280;50735;52.060;1.248;2023-04-26T02:08:24;101694.69;;;4.07;47.13
63306;BME280;50735;52.060;1.248;2023-04-26T02:10:57;101694.65;;;4.06;47.50
63306;BME280;50735;52.060;1.248;2023-04-26T02:13:28;101692.49;;;4.20;47.21
63306;BME280;50735;52.060;1.248;2023-04-26T02:16:00;101692.56;;;3.86;47.36
63306;BME280;50735;52.060;1.248;2023-04-26T02:18:32;101693.56;;;4.03;47.90
63306;BME280;50735;52.060;1.248;2023-04-26T02:21:07;101694.44;;;3.98;47.44
63306;BME280;50735;52.060;1.248;2023-04-26T02:23:38;101699.63;;;4.01;47.57
63306;BME280;50735;52.060;1.248;2023-04-26T02:26:10;101696.33;;;4.20;47.63
63306;BME280;50735;52.060;1.248;2023-04-26T02:28:42;101690.37;;;4.00;47.53
63306;BME280;50735;52.060;1.248;2023-04-26T02:31:14;101686.80;;;3.82;47.64
63306;BME280;50735;52.060;1.248;2023-04-26T02:33:46;101688.55;;;3.82;47.75
63306;BME280;50735;52.060;1.248;2023-04-26T02:36:18;101690.38;;;4.20;47.70
63306;BME280;50735;52.060;1.248;2023-04-26T02:38:50;101688.77;;;4.21;47.78
63306;BME280;50735;52.060;1.248;2023-04-26T02:41:22;101685.84;;;4.01;47.82
63306;BME280;50735;52.060;1.248;2023-04-26T02:43:53;101684.71;;;3.81;47.85
63306;BME280;50735;52.060;1.248;2023-04-26T02:46:25;101682.81;;;3.81;47.92
63306;BME280;50735;52.060;1.248;2023-04-26T02:48:57;101682.72;;;3.75;48.40
63306;BME280;50735;52.060;1.248;2023-04-26T02:51:29;101682.84;;;3.90;48.25
63306;BME280;50735;52.060;1.248;2023-04-26T02:54:01;101687.04;;;3.86;48.43
63306;BME280;50735;52.060;1.248;2023-04-26T02:56:33;101684.92;;;3.88;48.19
63306;BME280;50735;52.060;1.248;2023-04-26T02:59:05;101685.47;;;4.09;48.09
63306;BME280;50735;52.060;1.248;2023-04-26T03:01:37;101688.70;;;3.82;48.82
63306;BME280;50735;52.060;1.248;2023-04-26T03:04:09;101688.44;;;3.79;48.40
63306;BME280;50735;52.060;1.248;2023-04-26T03:06:41;101686.77;;;4.01;48.81
63306;BME280;50735;52.060;1.248;2023-04-26T03:09:13;101684.54;;;3.31;49.22
63306;BME280;50735;52.060;1.248;2023-04-26T03:11:45;101678.39;;;3.76;49.08
63306;BME280;50735;52.060;1.248;2023-04-26T03:14:17;101675.74;;;3.69;48.97
63306;BME280;50735;52.060;1.248;2023-04-26T03:16:49;101675.59;;;3.76;48.64
63306;BME280;50735;52.060;1.248;2023-04-26T03:19:21;101676.37;;;4.02;48.40
63306;BME280;50735;52.060;1.248;2023-04-26T03:21:53;101677.86;;;3.92;48.83
63306;BME280;50735;52.060;1.248;2023-04-26T03:24:25;101678.82;;;3.91;48.33
63306;BME280;50735;52.060;1.248;2023-04-26T03:26:56;101678.16;;;3.78;48.34
63306;BME280;50735;52.060;1.248;2023-04-26T03:29:28;101676.04;;;3.84;48.36
63306;BME280;50735;52.060;1.248;2023-04-26T03:32:00;101674.07;;;4.07;48.44
63306;BME280;50735;52.060;1.248;2023-04-26T03:34:32;101678.10;;;4.10;48.32
63306;BME280;50735;52.060;1.248;2023-04-26T03:37:04;101678.72;;;3.96;48.35
63306;BME280;50735;52.060;1.248;2023-04-26T03:39:36;101679.25;;;4.17;48.31
63306;BME280;50735;52.060;1.248;2023-04-26T03:42:08;101676.70;;;4.19;48.27
63306;BME280;50735;52.060;1.248;2023-04-26T03:44:40;101670.09;;;4.21;48.92
63306;BME280;50735;52.060;1.248;2023-04-26T03:47:12;101664.78;;;4.14;48.67
63306;BME280;50735;52.060;1.248;2023-04-26T03:49:44;101663.96;;;3.93;48.51
63306;BME280;50735;52.060;1.248;2023-04-26T03:52:16;101665.92;;;4.29;48.46
63306;BME280;50735;52.060;1.248;2023-04-26T03:54:48;101669.56;;;3.97;48.47
63306;BME280;50735;52.060;1.248;2023-04-26T03:57:19;101676.47;;;4.03;48.77
63306;BME280;50735;52.060;1.248;2023-04-26T03:59:51;101678.51;;;4.21;48.56
63306;BME280;50735;52.060;1.248;2023-04-26T04:02:23;101679.52;;;4.39;48.39
63306;BME280;50735;52.060;1.248;2023-04-26T04:04:55;101682.78;;;4.22;48.42
63306;BME280;50735;52.060;1.248;2023-04-26T04:07:27;101680.02;;;4.26;48.38
63306;BME280;50735;52.060;1.248;2023-04-26T04:09:59;101668.93;;;4.08;48.38
63306;BME280;50735;52.060;1.248;2023-04-26T04:12:31;101674.22;;;4.26;48.50
63306;BME280;50735;52.060;1.248;2023-04-26T04:15:03;101674.66;;;4.10;48.54
63306;BME280;50735;52.060;1.248;2023-04-26T04:17:35;101670.15;;;4.28;48.55
63306;BME280;50735;52.060;1.248;2023-04-26T04:20:08;101666.93;;;4.10;48.63
63306;BME280;50735;52.060;1.248;2023-04-26T04:22:40;101666.22;;;4.29;48.65
63306;BME280;50735;52.060;1.248;2023-04-26T04:25:11;101664.97;;;4.31;48.63
63306;BME280;50735;52.060;1.248;2023-04-26T04:27:43;101666.25;;;4.13;48.61
63306;BME280;50735;52.060;1.248;2023-04-26T04:30:15;101666.52;;;4.12;48.70
63306;BME280;50735;52.060;1.248;2023-04-26T04:32:47;101669.88;;;4.12;48.86
63306;BME280;50735;52.060;1.248;2023-04-26T04:35:21;101668.80;;;4.14;48.94
63306;BME280;50735;52.060;1.248;2023-04-26T04:37:53;101658.66;;;4.13;48.86
63306;BME280;50735;52.060;1.248;2023-04-26T04:40:25;101659.89;;;4.10;48.88
63306;BME280;50735;52.060;1.248;2023-04-26T04:42:58;101660.61;;;4.13;48.90
63306;BME280;50735;52.060;1.248;2023-04-26T04:45:30;101661.99;;;4.14;48.93
63306;BME280;50735;52.060;1.248;2023-04-26T04:48:02;101666.19;;;4.55;49.09
63306;BME280;50735;52.060;1.248;2023-04-26T04:50:34;101669.61;;;4.38;48.97
63306;BME280;50735;52.060;1.248;2023-04-26T04:53:06;101668.61;;;4.19;49.06
63306;BME280;50735;52.060;1.248;2023-04-26T04:55:38;101671.90;;;4.58;49.13
63306;BME280;50735;52.060;1.248;2023-04-26T04:58:10;101673.65;;;4.24;49.14
63306;BME280;50735;52.060;1.248;2023-04-26T05:00:42;101673.04;;;4.28;49.21
63306;BME280;50735;52.060;1.248;2023-04-26T05:03:14;101673.43;;;4.51;49.40
63306;BME280;50735;52.060;1.248;2023-04-26T05:05:46;101671.87;;;4.52;49.31
63306;BME280;50735;52.060;1.248;2023-04-26T05:08:18;101671.66;;;4.39;49.41
63306;BME280;50735;52.060;1.248;2023-04-26T05:10:50;101669.16;;;4.42;49.46
63306;BME280;50735;52.060;1.248;2023-04-26T05:13:22;101672.39;;;4.45;54.04
63306;BME280;50735;52.060;1.248;2023-04-26T05:15:54;101672.86;;;4.85;55.57
63306;BME280;50735;52.060;1.248;2023-04-26T05:18:26;101671.73;;;4.73;51.02
63306;BME280;50735;52.060;1.248;2023-04-26T05:20:58;101670.12;;;4.75;50.64
63306;BME280;50735;52.060;1.248;2023-04-26T05:23:29;101667.00;;;4.77;50.36
63306;BME280;50735;52.060;1.248;2023-04-26T05:26:02;101663.51;;;4.77;50.27
63306;BME280;50735;52.060;1.248;2023-04-26T05:28:34;101666.89;;;4.78;50.24
63306;BME280;50735;52.060;1.248;2023-04-26T05:31:07;101667.83;;;4.99;50.20
63306;BME280;50735;52.060;1.248;2023-04-26T05:33:40;101662.96;;;5.04;50.44
63306;BME280;50735;52.060;1.248;2023-04-26T05:36:12;101661.45;;;4.90;50.23
63306;BME280;50735;52.060;1.248;2023-04-26T05:38:44;101657.97;;;4.99;50.19
63306;BME280;50735;52.060;1.248;2023-04-26T05:41:15;101662.15;;;4.78;50.12
63306;BME280;50735;52.060;1.248;2023-04-26T05:43:47;101662.53;;;5.06;50.17
63306;BME280;50735;52.060;1.248;2023-04-26T05:46:19;101662.90;;;4.90;50.11
63306;BME280;50735;52.060;1.248;2023-04-26T05:48:51;101662.42;;;5.18;50.23
63306;BME280;50735;52.060;1.248;2023-04-26T05:51:23;101663.05;;;5.01;50.13
63306;BME280;50735;52.060;1.248;2023-04-26T05:53:55;101668.56;;;5.06;50.12
63306;BME280;50735;52.060;1.248;2023-04-26T05:56:27;101669.88;;;5.37;50.10
63306;BME280;50735;52.060;1.248;2023-04-26T05:58:59;101674.06;;;5.44;49.99
63306;BME280;50735;52.060;1.248;2023-04-26T06:01:31;101680.18;;;5.52;49.99
63306;BME280;50735;52.060;1.248;2023-04-26T06:04:03;101681.93;;;5.36;50.05
63306;BME280;50735;52.060;1.248;2023-04-26T06:06:35;101679.31;;;5.62;50.54
63306;BME280;50735;52.060;1.248;2023-04-26T06:09:07;101684.63;;;5.21;50.24
63306;BME280;50735;52.060;1.248;2023-04-26T06:11:39;101690.40;;;5.53;50.15
63306;BME280;50735;52.060;1.248;2023-04-26T06:14:11;101694.74;;;5.67;50.19
63306;BME280;50735;52.060;1.248;2023-04-26T06:16:43;101696.87;;;5.58;49.99
63306;BME280;50735;52.060;1.248;2023-04-26T06:19:15;101698.83;;;5.71;49.78
63306;BME280;50735;52.060;1.248;2023-04-26T06:21:47;101700.29;;;5.83;49.41
63306;BME280;50735;52.060;1.248;2023-04-26T06:24:18;101701.68;;;5.95;49.51
63306;BME280;50735;52.060;1.248;2023-04-26T06:26:50;101699.72;;;6.04;49.15
63306;BME280;50735;52.060;1.248;2023-04-26T06:29:22;101697.29;;;6.09;49.55
63306;BME280;50735;52.060;1.248;2023-04-26T06:31:54;101696.54;;;6.11;49.29
63306;BME280;50735;52.060;1.248;2023-04-26T06:34:26;101694.80;;;6.27;49.12
63306;BME280;50735;52.060;1.248;2023-04-26T06:36:58;101693.47;;;6.30;49.18
63306;BME280;50735;52.060;1.248;2023-04-26T06:39:29;101689.47;;;6.20;51.25
63306;BME280;50735;52.060;1.248;2023-04-26T06:42:01;101689.49;;;6.37;49.22
63306;BME280;50735;52.060;1.248;2023-04-26T06:44:33;101692.37;;;6.58;48.74
63306;BME280;50735;52.060;1.248;2023-04-26T06:47:05;101698.46;;;6.49;50.84
63306;BME280;50735;52.060;1.248;2023-04-26T06:49:37;101697.14;;;6.89;48.89
63306;BME280;50735;52.060;1.248;2023-04-26T06:52:09;101703.24;;;6.84;48.56
63306;BME280;50735;52.060;1.248;2023-04-26T06:54:41;101703.15;;;6.90;48.57
63306;BME280;50735;52.060;1.248;2023-04-26T06:57:13;101700.47;;;7.05;47.88
63306;BME280;50735;52.060;1.248;2023-04-26T06:59:45;101702.27;;;7.15;48.34
63306;BME280;50735;52.060;1.248;2023-04-26T07:02:17;101703.07;;;7.16;48.04
63306;BME280;50735;52.060;1.248;2023-04-26T07:04:49;101697.03;;;7.30;46.50
63306;BME280;50735;52.060;1.248;2023-04-26T07:07:20;101695.52;;;7.44;47.15
63306;BME280;50735;52.060;1.248;2023-04-26T07:09:52;101696.87;;;7.67;46.74
63306;BME280;50735;52.060;1.248;2023-04-26T07:12:24;101699.12;;;7.71;46.79
63306;BME280;50735;52.060;1.248;2023-04-26T07:14:56;101697.23;;;8.02;46.00
63306;BME280;50735;52.060;1.248;2023-04-26T07:17:28;101694.67;;;7.87;45.12
63306;BME280;50735;52.060;1.248;2023-04-26T07:20:00;101693.53;;;8.31;45.75
63306;BME280;50735;52.060;1.248;2023-04-26T07:22:32;101692.70;;;8.60;44.71
63306;BME280;50735;52.060;1.248;2023-04-26T07:25:04;101687.30;;;8.75;41.69
63306;BME280;50735;52.060;1.248;2023-04-26T07:27:36;101688.48;;;8.61;40.71
63306;BME280;50735;52.060;1.248;2023-04-26T07:30:09;101689.66;;;8.07;39.80
63306;BME280;50735;52.060;1.248;2023-04-26T07:32:41;101681.91;;;8.02;41.04
63306;BME280;50735;52.060;1.248;2023-04-26T07:35:13;101679.49;;;8.33;40.62
63306;BME280;50735;52.060;1.248;2023-04-26T07:37:45;101675.01;;;8.19;39.52
63306;BME280;50735;52.060;1.248;2023-04-26T07:40:17;101672.17;;;8.03;39.73
63306;BME280;50735;52.060;1.248;2023-04-26T07:42:49;101672.82;;;7.86;40.47
63306;BME280;50735;52.060;1.248;2023-04-26T07:45:20;101674.98;;;7.98;40.35
63306;BME280;50735;52.060;1.248;2023-04-26T07:47:52;101675.46;;;8.28;40.62
63306;BME280;50735;52.060;1.248;2023-04-26T07:50:24;101677.39;;;8.12;39.85
63306;BME280;50735;52.060;1.248;2023-04-26T07:52:56;101679.54;;;8.29;39.94
63306;BME280;50735;52.060;1.248;2023-04-26T07:55:28;101683.33;;;8.62;39.95
63306;BME280;50735;52.060;1.248;2023-04-26T07:58:00;101686.88;;;8.92;39.47
63306;BME280;50735;52.060;1.248;2023-04-26T08:00:32;101687.76;;;8.76;38.53
63306;BME280;50735;52.060;1.248;2023-04-26T08:03:03;101686.64;;;8.99;38.92
63306;BME280;50735;52.060;1.248;2023-04-26T08:05:35;101688.59;;;9.08;38.64
63306;BME280;50735;52.060;1.248;2023-04-26T08:08:07;101689.19;;;9.01;38.82
63306;BME280;50735;52.060;1.248;2023-04-26T08:10:39;101694.28;;;8.75;39.02
63306;BME280;50735;52.060;1.248;2023-04-26T08:13:11;101685.67;;;9.39;38.82
63306;BME280;50735;52.060;1.248;2023-04-26T08:15:44;101688.00;;;9.33;37.62
63306;BME280;50735;52.060;1.248;2023-04-26T08:18:16;101696.83;;;8.64;38.11
63306;BME280;50735;52.060;1.248;2023-04-26T08:20:47;101696.76;;;8.61;40.24
63306;BME280;50735;52.060;1.248;2023-04-26T08:23:19;101695.01;;;8.78;38.61
63306;BME280;50735;52.060;1.248;2023-04-26T08:25:51;101692.16;;;8.66;38.55
63306;BME280;50735;52.060;1.248;2023-04-26T08:28:23;101691.46;;;9.04;38.65
63306;BME280;50735;52.060;1.248;2023-04-26T08:30:54;101692.66;;;8.78;38.31
63306;BME280;50735;52.060;1.248;2023-04-26T08:33:26;101692.34;;;9.21;37.99
63306;BME280;50735;52.060;1.248;2023-04-26T08:35:58;101693.92;;;9.48;38.03
63306;BME280;50735;52.060;1.248;2023-04-26T08:38:30;101696.90;;;9.00;37.54
63306;BME280;50735;52.060;1.248;2023-04-26T08:41:04;101691.56;;;8.99;37.76
63306;BME280;50735;52.060;1.248;2023-04-26T08:43:37;101693.20;;;8.50;38.21
63306;BME280;50735;52.060;1.248;2023-04-26T08:46:14;101689.85;;;8.55;38.05
63306;BME280;50735;52.060;1.248;2023-04-26T08:48:57;101686.66;;;8.13;38.79
63306;BME280;50735;52.060;1.248;2023-04-26T08:51:33;101689.91;;;9.03;38.67
63306;BME280;50735;52.060;1.248;2023-04-26T08:54:07;101691.63;;;9.22;37.81
63306;BME280;50735;52.060;1.248;2023-04-26T08:56:40;101694.04;;;8.73;38.10
63306;BME280;50735;52.060;1.248;2023-04-26T08:59:12;101690.49;;;9.16;37.64
63306;BME280;50735;52.060;1.248;2023-04-26T09:01:44;101687.78;;;9.93;36.44
63306;BME280;50735;52.060;1.248;2023-04-26T09:04:16;101688.71;;;10.07;35.55
63306;BME280;50735;52.060;1.248;2023-04-26T09:06:49;101684.20;;;10.96;36.44
63306;BME280;50735;52.060;1.248;2023-04-26T09:09:24;101685.10;;;11.18;34.09
63306;BME280;50735;52.060;1.248;2023-04-26T09:11:58;101681.86;;;11.23;33.81
63306;BME280;50735;52.060;1.248;2023-04-26T09:14:31;101682.78;;;11.25;33.52
63306;BME280;50735;52.060;1.248;2023-04-26T09:17:02;101683.41;;;11.61;33.05
63306;BME280;50735;52.060;1.248;2023-04-26T09:19:35;101687.22;;;10.94;33.11
63306;BME280;50735;52.060;1.248;2023-04-26T09:22:08;101683.66;;;11.06;33.39
63306;BME280;50735;52.060;1.248;2023-04-26T09:24:49;101678.05;;;11.18;32.94
63306;BME280;50735;52.060;1.248;2023-04-26T09:27:31;101676.97;;;11.40;32.71
63306;BME280;50735;52.060;1.248;2023-04-26T09:30:06;101674.98;;;11.31;32.86
63306;BME280;50735;52.060;1.248;2023-04-26T09:32:48;101679.90;;;11.04;32.88
63306;BME280;50735;52.060;1.248;2023-04-26T09:35:23;101677.71;;;11.28;32.25
63306;BME280;50735;52.060;1.248;2023-04-26T09:37:58;101678.75;;;11.35;32.34
63306;BME280;50735;52.060;1.248;2023-04-26T09:40:33;101683.59;;;11.87;31.63
63306;BME280;50735;52.060;1.248;2023-04-26T09:43:07;101691.07;;;12.61;30.98
63306;BME280;50735;52.060;1.248;2023-04-26T09:45:44;101690.11;;;12.41;30.65
63306;BME280;50735;52.060;1.248;2023-04-26T09:48:18;101691.69;;;12.34;30.20
63306;BME280;50735;52.060;1.248;2023-04-26T09:50:53;101688.27;;;12.07;29.84
63306;BME280;50735;52.060;1.248;2023-04-26T09:53:26;101688.76;;;12.23;29.48
63306;BME280;50735;52.060;1.248;2023-04-26T09:56:06;101690.97;;;12.19;29.57
63306;BME280;50735;52.060;1.248;2023-04-26T09:58:39;101680.85;;;13.55;29.18
63306;BME280;50735;52.060;1.248;2023-04-26T10:01:27;101688.08;;;13.69;27.56
63306;BME280;50735;52.060;1.248;2023-04-26T10:04:00;101682.09;;;13.49;28.06
63306;BME280;50735;52.060;1.248;2023-04-26T10:06:32;101679.46;;;13.91;28.00
63306;BME280;50735;52.060;1.248;2023-04-26T10:09:06;101672.33;;;13.59;27.47
63306;BME280;50735;52.060;1.248;2023-04-26T10:11:38;101677.14;;;14.10;27.20
63306;BME280;50735;52.060;1.248;2023-04-26T10:14:10;101674.59;;;14.39;26.20
63306;BME280;50735;52.060;1.248;2023-04-26T10:16:43;101685.07;;;14.25;27.23
63306;BME280;50735;52.060;1.248;2023-04-26T10:19:16;101675.95;;;14.97;26.71
63306;BME280;50735;52.060;1.248;2023-04-26T10:21:48;101678.72;;;14.51;26.63
63306;BME280;50735;52.060;1.248;2023-04-26T10:24:22;101679.56;;;14.01;27.08
63306;BME280;50735;52.060;1.248;2023-04-26T10:26:54;101672.81;;;14.02;27.49
63306;BME280;50735;52.060;1.248;2023-04-26T10:30:05;101673.02;;;14.05;26.98
63306;BME280;50735;52.060;1.248;2023-04-26T10:33:10;101664.93;;;14.28;26.45
63306;BME280;50735;52.060;1.248;2023-04-26T10:36:17;101664.87;;;14.74;26.39
63306;BME280;50735;52.060;1.248;2023-04-26T10:39:18;101660.79;;;14.56;26.05
63306;BME280;50735;52.060;1.248;2023-04-26T10:41:50;101655.25;;;14.88;26.20
63306;BME280;50735;52.060;1.248;2023-04-26T10:44:39;101650.71;;;15.01;26.15
63306;BME280;50735;52.060;1.248;2023-04-26T10:47:28;101656.40;;;14.35;25.73
63306;BME280;50735;52.060;1.248;2023-04-26T10:50:03;101652.00;;;13.98;26.10
63306;BME280;50735;52.060;1.248;2023-04-26T10:52:35;101651.19;;;14.50;26.73
63306;BME280;50735;52.060;1.248;2023-04-26T10:55:07;101651.31;;;14.56;25.65
63306;BME280;50735;52.060;1.248;2023-04-26T10:57:48;101644.60;;;15.01;25.09
63306;BME280;50735;52.060;1.248;2023-04-26T11:00:27;101641.88;;;14.86;25.20
63306;BME280;50735;52.060;1.248;2023-04-26T11:03:03;101644.76;;;14.34;25.18
63306;BME280;50735;52.060;1.248;2023-04-26T11:05:38;101646.07;;;14.35;25.74
63306;BME280;50735;52.060;1.248;2023-04-26T11:08:15;101641.07;;;14.19;25.86
63306;BME280;50735;52.060;1.248;2023-04-26T11:10:51;101640.08;;;14.23;25.56
63306;BME280;50735;52.060;1.248;2023-04-26T11:13:23;101634.79;;;14.38;25.16
63306;BME280;50735;52.060;1.248;2023-04-26T11:15:59;101638.36;;;14.46;25.52
63306;BME280;50735;52.060;1.248;2023-04-26T11:18:33;101631.03;;;13.90;24.90
63306;BME280;50735;52.060;1.248;2023-04-26T11:21:05;101624.38;;;13.96;25.91
63306;BME280;50735;52.060;1.248;2023-04-26T11:23:37;101627.41;;;13.86;27.49
63306;BME280;50735;52.060;1.248;2023-04-26T11:26:09;101629.75;;;13.47;26.23
63306;BME280;50735;52.060;1.248;2023-04-26T11:28:40;101625.03;;;13.73;26.28
63306;BME280;50735;52.060;1.248;2023-04-26T11:31:12;101621.33;;;13.79;25.92
63306;BME280;50735;52.060;1.248;2023-04-26T11:33:44;101621.69;;;14.02;27.02
63306;BME280;50735;52.060;1.248;2023-04-26T11:36:16;101630.83;;;14.04;25.60
63306;BME280;50735;52.060;1.248;2023-04-26T11:38:48;101623.02;;;13.80;25.47
63306;BME280;50735;52.060;1.248;2023-04-26T11:41:22;101621.82;;;13.82;25.41
63306;BME280;50735;52.060;1.248;2023-04-26T11:43:53;101624.98;;;14.17;25.59
63306;BME280;50735;52.060;1.248;2023-04-26T11:46:25;101622.58;;;14.37;25.98
63306;BME280;50735;52.060;1.248;2023-04-26T11:48:57;101624.46;;;14.31;25.39
63306;BME280;50735;52.060;1.248;2023-04-26T11:51:30;101622.02;;;14.79;24.56
63306;BME280;50735;52.060;1.248;2023-04-26T11:54:03;101628.21;;;14.31;24.97
63306;BME280;50735;52.060;1.248;2023-04-26T11:56:34;101631.58;;;13.58;25.73
63306;BME280;50735;52.060;1.248;2023-04-26T11:59:06;101634.08;;;13.79;26.31
63306;BME280;50735;52.060;1.248;2023-04-26T12:01:38;101632.93;;;13.10;26.31
63306;BME280;50735;52.060;1.248;2023-04-26T12:04:09;101628.75;;;13.46;29.73
63306;BME280;50735;52.060;1.248;2023-04-26T12:06:42;101623.69;;;13.58;25.97
63306;BME280;50735;52.060;1.248;2023-04-26T12:09:14;101623.08;;;13.35;26.11
63306;BME280;50735;52.060;1.248;2023-04-26T12:11:47;101611.45;;;13.79;25.84
63306;BME280;50735;52.060;1.248;2023-04-26T12:14:19;101623.27;;;13.73;25.51
63306;BME280;50735;52.060;1.248;2023-04-26T12:16:52;101621.53;;;13.41;24.81
63306;BME280;50735;52.060;1.248;2023-04-26T12:19:23;101618.66;;;13.50;23.29
63306;BME280;50735;52.060;1.248;2023-04-26T12:21:55;101623.55;;;12.82;24.58
63306;BME280;50735;52.060;1.248;2023-04-26T12:24:29;101621.75;;;13.08;24.23
63306;BME280;50735;52.060;1.248;2023-04-26T12:27:02;101636.48;;;12.49;25.74
63306;BME280;50735;52.060;1.248;2023-04-26T12:29:35;101629.77;;;12.48;25.97
63306;BME280;50735;52.060;1.248;2023-04-26T12:32:06;101628.25;;;13.29;26.08
63306;BME280;50735;52.060;1.248;2023-04-26T12:34:38;101632.07;;;13.38;26.18
63306;BME280;50735;52.060;1.248;2023-04-26T12:37:10;101630.15;;;13.54;26.20
63306;BME280;50735;52.060;1.248;2023-04-26T12:39:42;101634.25;;;12.80;26.63
63306;BME280;50735;52.060;1.248;2023-04-26T12:42:13;101633.90;;;12.28;27.35
63306;BME280;50735;52.060;1.248;2023-04-26T12:44:45;101635.15;;;12.12;25.95
63306;BME280;50735;52.060;1.248;2023-04-26T12:47:17;101640.11;;;11.25;26.53
63306;BME280;50735;52.060;1.248;2023-04-26T12:49:49;101639.27;;;12.13;26.75
63306;BME280;50735;52.060;1.248;2023-04-26T12:52:20;101642.28;;;12.49;26.44
63306;BME280;50735;52.060;1.248;2023-04-26T12:54:52;101643.31;;;12.83;25.50
63306;BME280;50735;52.060;1.248;2023-04-26T12:57:24;101652.52;;;13.01;25.50
63306;BME280;50735;52.060;1.248;2023-04-26T12:59:56;101642.88;;;13.32;25.70
63306;BME280;50735;52.060;1.248;2023-04-26T13:02:27;101647.65;;;12.92;26.65
63306;BME280;50735;52.060;1.248;2023-04-26T13:05:00;101645.21;;;13.22;26.35
63306;BME280;50735;52.060;1.248;2023-04-26T13:07:34;101655.37;;;13.43;25.60
63306;BME280;50735;52.060;1.248;2023-04-26T13:10:07;101654.25;;;12.70;25.50
63306;BME280;50735;52.060;1.248;2023-04-26T13:12:39;101647.94;;;12.90;26.12
63306;BME280;50735;52.060;1.248;2023-04-26T13:15:11;101646.00;;;13.29;26.32
63306;BME280;50735;52.060;1.248;2023-04-26T13:17:42;101648.46;;;12.75;26.16
63306;BME280;50735;52.060;1.248;2023-04-26T13:20:14;101649.47;;;12.59;27.27
63306;BME280;50735;52.060;1.248;2023-04-26T13:22:46;101647.20;;;12.78;26.80
63306;BME280;50735;52.060;1.248;2023-04-26T13:25:18;101645.31;;;12.81;26.62